RYR7WU LIPH-EBCI
Flight info
| Callsign | RYR7WU |
|---|---|
| Flight time | 1h 41m |
| Altitude | 18000 |
| Route | ROKIB Z906 NAXAV/N0444F360 DCT UNIMI DCT MOGTI DCT KPT L608 KUNOD DCT IDOVI Z104 ODVUX/N0383F280 Z104 GESLO N852 LNO |
| Aircraft | B738/M-SDE3FGILRWY/SB1 |
Departure
| Time | 2026-04-22 14:22 |
|---|---|
| Airport | Treviso Airport (LIPH) |
Arrival
| Time | 2026-04-22 16:03 |
|---|---|
| Airport | Brussels South Charleroi Airport (EBCI) |
| Time | Latitude | Longitude | Altitude | Speed | Heading |
|---|---|---|---|---|---|
| 2026-04-22 14:00 | 45.65371 | 12.20373 | 60 ft | 0 kts | 339° |
| 2026-04-22 14:13 | 45.65367 | 12.20375 | 54 ft | 3 kts | 339° |
| 2026-04-22 14:13 | 45.65342 | 12.20389 | 56 ft | 3 kts | 339° |
| 2026-04-22 14:13 | 45.65321 | 12.20404 | 52 ft | 4 kts | 304° |
| 2026-04-22 14:14 | 45.65318 | 12.20436 | 56 ft | 4 kts | 251° |
| 2026-04-22 14:14 | 45.65322 | 12.20454 | 55 ft | 1 kts | 249° |
| 2026-04-22 14:14 | 45.65323 | 12.20456 | 55 ft | 0 kts | 249° |
| 2026-04-22 14:16 | 45.65321 | 12.20450 | 55 ft | 4 kts | 248° |
| 2026-04-22 14:16 | 45.65300 | 12.20373 | 57 ft | 12 kts | 244° |
| 2026-04-22 14:16 | 45.65231 | 12.20284 | 56 ft | 9 kts | 201° |
| 2026-04-22 14:17 | 45.65168 | 12.20251 | 58 ft | 10 kts | 192° |
| 2026-04-22 14:17 | 45.65092 | 12.20185 | 58 ft | 19 kts | 217° |
| 2026-04-22 14:17 | 45.65003 | 12.19979 | 59 ft | 29 kts | 249° |
| 2026-04-22 14:17 | 45.64932 | 12.19713 | 59 ft | 27 kts | 251° |
| 2026-04-22 14:18 | 45.64889 | 12.19549 | 61 ft | 26 kts | 249° |
| 2026-04-22 14:18 | 45.64828 | 12.19324 | 55 ft | 23 kts | 248° |
| 2026-04-22 14:18 | 45.64773 | 12.19113 | 62 ft | 22 kts | 249° |
| 2026-04-22 14:18 | 45.64715 | 12.18899 | 63 ft | 23 kts | 249° |
| 2026-04-22 14:19 | 45.64659 | 12.18687 | 62 ft | 23 kts | 248° |
| 2026-04-22 14:19 | 45.64594 | 12.18442 | 61 ft | 29 kts | 250° |
| 2026-04-22 14:19 | 45.64528 | 12.18204 | 61 ft | 23 kts | 252° |
| 2026-04-22 14:19 | 45.64500 | 12.18004 | 62 ft | 18 kts | 288° |
| 2026-04-22 14:20 | 45.64466 | 12.17960 | 66 ft | 4 kts | 79° |
| 2026-04-22 14:20 | 45.64467 | 12.17965 | 66 ft | 0 kts | 72° |
| 2026-04-22 14:21 | 45.64808 | 12.19248 | 61 ft | 137 kts | 69° |
| 2026-04-22 14:21 | 45.65202 | 12.20692 | 403 ft | 159 kts | 73° |
| 2026-04-22 14:22 | 45.65545 | 12.24202 | 2109 ft | 174 kts | 105° |
| 2026-04-22 14:22 | 45.65166 | 12.25298 | 2438 ft | 188 kts | 123° |
| 2026-04-22 14:22 | 45.62717 | 12.26484 | 3741 ft | 213 kts | 199° |
| 2026-04-22 14:23 | 45.61594 | 12.25114 | 4418 ft | 222 kts | 242° |
| 2026-04-22 14:23 | 45.61371 | 12.22966 | 5104 ft | 221 kts | 286° |
| 2026-04-22 14:23 | 45.61811 | 12.20844 | 5673 ft | 231 kts | 286° |
| 2026-04-22 14:23 | 45.62218 | 12.18620 | 6414 ft | 230 kts | 285° |
| 2026-04-22 14:24 | 45.62629 | 12.16396 | 7162 ft | 233 kts | 286° |
| 2026-04-22 14:24 | 45.63009 | 12.14168 | 7922 ft | 236 kts | 277° |
| 2026-04-22 14:24 | 45.62723 | 12.11825 | 8485 ft | 253 kts | 247° |
| 2026-04-22 14:24 | 45.61914 | 12.09436 | 8764 ft | 279 kts | 246° |
| 2026-04-22 14:25 | 45.61059 | 12.06884 | 9426 ft | 288 kts | 246° |
| 2026-04-22 14:25 | 45.60203 | 12.04283 | 10247 ft | 292 kts | 247° |
| 2026-04-22 14:25 | 45.59329 | 12.01596 | 10692 ft | 309 kts | 248° |
| 2026-04-22 14:25 | 45.58727 | 11.98560 | 10842 ft | 329 kts | 271° |
| 2026-04-22 14:26 | 45.59085 | 11.95312 | 11348 ft | 335 kts | 290° |
| 2026-04-22 14:26 | 45.60210 | 11.92435 | 12073 ft | 334 kts | 316° |
| 2026-04-22 14:26 | 45.62091 | 11.90538 | 12961 ft | 331 kts | 333° |
| 2026-04-22 14:26 | 45.64181 | 11.89135 | 13779 ft | 334 kts | 336° |
| 2026-04-22 14:27 | 45.66324 | 11.87798 | 14469 ft | 338 kts | 336° |
| 2026-04-22 14:27 | 45.68478 | 11.86429 | 15166 ft | 340 kts | 335° |
| 2026-04-22 14:27 | 45.70636 | 11.85022 | 15822 ft | 342 kts | 335° |
| 2026-04-22 14:27 | 45.72806 | 11.83588 | 16534 ft | 345 kts | 334° |
| 2026-04-22 14:28 | 45.74981 | 11.82107 | 17175 ft | 348 kts | 333° |
| 2026-04-22 14:28 | 45.77175 | 11.80588 | 17873 ft | 351 kts | 333° |
| 2026-04-22 14:28 | 45.79379 | 11.79058 | 18538 ft | 354 kts | 333° |
| 2026-04-22 14:28 | 45.81601 | 11.77517 | 19114 ft | 356 kts | 333° |
| 2026-04-22 14:29 | 45.83847 | 11.75961 | 19635 ft | 359 kts | 333° |
| 2026-04-22 14:29 | 45.86100 | 11.74399 | 20306 ft | 359 kts | 332° |
| 2026-04-22 14:29 | 45.88355 | 11.72838 | 20894 ft | 362 kts | 332° |
| 2026-04-22 14:29 | 45.90634 | 11.71259 | 21447 ft | 365 kts | 332° |
| 2026-04-22 14:30 | 45.92928 | 11.69669 | 22042 ft | 367 kts | 332° |
| 2026-04-22 14:30 | 45.95237 | 11.68067 | 22599 ft | 369 kts | 332° |
| 2026-04-22 14:30 | 45.97558 | 11.66455 | 23145 ft | 372 kts | 333° |
| 2026-04-22 14:30 | 45.99911 | 11.64819 | 23527 ft | 379 kts | 333° |
| 2026-04-22 14:31 | 46.02296 | 11.63161 | 23965 ft | 381 kts | 333° |
| 2026-04-22 14:31 | 46.04676 | 11.61507 | 24488 ft | 380 kts | 333° |
| 2026-04-22 14:31 | 46.07053 | 11.59852 | 24966 ft | 381 kts | 332° |
| 2026-04-22 14:31 | 46.09443 | 11.58185 | 25409 ft | 382 kts | 332° |
| 2026-04-22 14:32 | 46.11839 | 11.56512 | 25827 ft | 383 kts | 332° |
| 2026-04-22 14:32 | 46.14248 | 11.54826 | 26199 ft | 386 kts | 332° |
| 2026-04-22 14:32 | 46.16673 | 11.53130 | 26615 ft | 388 kts | 332° |
| 2026-04-22 14:32 | 46.19107 | 11.51427 | 27021 ft | 389 kts | 332° |
| 2026-04-22 14:33 | 46.21545 | 11.49719 | 27469 ft | 390 kts | 331° |
| 2026-04-22 14:33 | 46.23986 | 11.48008 | 27849 ft | 391 kts | 331° |
| 2026-04-22 14:33 | 46.26441 | 11.46284 | 28241 ft | 393 kts | 331° |
| 2026-04-22 14:33 | 46.28906 | 11.44550 | 28637 ft | 394 kts | 331° |
| 2026-04-22 14:34 | 46.31374 | 11.42813 | 28995 ft | 395 kts | 331° |
| 2026-04-22 14:34 | 46.33818 | 11.41090 | 29339 ft | 397 kts | 330° |
| 2026-04-22 14:34 | 46.36298 | 11.39343 | 29805 ft | 396 kts | 330° |
| 2026-04-22 14:34 | 46.38768 | 11.37600 | 30294 ft | 393 kts | 330° |
| 2026-04-22 14:35 | 46.41222 | 11.35867 | 30711 ft | 393 kts | 331° |
| 2026-04-22 14:35 | 46.43694 | 11.34117 | 30846 ft | 399 kts | 331° |
| 2026-04-22 14:35 | 46.46191 | 11.32349 | 31102 ft | 399 kts | 331° |
| 2026-04-22 14:35 | 46.48684 | 11.30635 | 31624 ft | 394 kts | 332° |
| 2026-04-22 14:36 | 46.51177 | 11.29022 | 32029 ft | 393 kts | 333° |
| 2026-04-22 14:36 | 46.53689 | 11.27429 | 32285 ft | 394 kts | 333° |
| 2026-04-22 14:36 | 46.56210 | 11.25834 | 32550 ft | 396 kts | 333° |
| 2026-04-22 14:36 | 46.58722 | 11.24236 | 32892 ft | 394 kts | 333° |
| 2026-04-22 14:37 | 46.61234 | 11.22628 | 33251 ft | 393 kts | 333° |
| 2026-04-22 14:37 | 46.63731 | 11.21021 | 33594 ft | 393 kts | 333° |
| 2026-04-22 14:37 | 46.66252 | 11.19391 | 33658 ft | 399 kts | 334° |
| 2026-04-22 14:37 | 46.68793 | 11.17745 | 33932 ft | 400 kts | 333° |
| 2026-04-22 14:38 | 46.71330 | 11.16103 | 34274 ft | 398 kts | 334° |
| 2026-04-22 14:38 | 46.73857 | 11.14467 | 34466 ft | 398 kts | 334° |
| 2026-04-22 14:38 | 46.76391 | 11.12817 | 34619 ft | 400 kts | 334° |
| 2026-04-22 14:38 | 46.78947 | 11.11204 | 34834 ft | 400 kts | 334° |
| 2026-04-22 14:39 | 46.81483 | 11.09540 | 35088 ft | 399 kts | 333° |
| 2026-04-22 14:39 | 46.84016 | 11.07865 | 35256 ft | 401 kts | 334° |
| 2026-04-22 14:39 | 46.86568 | 11.06190 | 35389 ft | 404 kts | 334° |
| 2026-04-22 14:40 | 46.91715 | 11.02822 | 35770 ft | 405 kts | 334° |
| 2026-04-22 14:40 | 46.94290 | 11.01138 | 36011 ft | 404 kts | 334° |
| 2026-04-22 14:40 | 46.99424 | 10.97777 | 36108 ft | 406 kts | 334° |
| 2026-04-22 14:41 | 47.04597 | 10.94383 | 36134 ft | 408 kts | 334° |
| 2026-04-22 14:41 | 47.09777 | 10.90977 | 36132 ft | 408 kts | 335° |
| 2026-04-22 14:42 | 47.14960 | 10.87562 | 36144 ft | 409 kts | 334° |
| 2026-04-22 14:42 | 47.20157 | 10.84131 | 36145 ft | 410 kts | 335° |
| 2026-04-22 14:43 | 47.25362 | 10.80687 | 36115 ft | 409 kts | 334° |
| 2026-04-22 14:43 | 47.30550 | 10.77248 | 36169 ft | 409 kts | 335° |
| 2026-04-22 14:44 | 47.35747 | 10.73795 | 36168 ft | 410 kts | 335° |
| 2026-04-22 14:44 | 47.40802 | 10.69899 | 36162 ft | 410 kts | 325° |
| 2026-04-22 14:45 | 47.45472 | 10.65056 | 36167 ft | 411 kts | 325° |
| 2026-04-22 14:45 | 47.50152 | 10.60203 | 36170 ft | 411 kts | 325° |
| 2026-04-22 14:46 | 47.54841 | 10.55376 | 36181 ft | 411 kts | 326° |
| 2026-04-22 14:46 | 47.59535 | 10.50550 | 36175 ft | 411 kts | 325° |
| 2026-04-22 14:47 | 47.64232 | 10.45714 | 36181 ft | 411 kts | 325° |
| 2026-04-22 14:47 | 47.68927 | 10.40868 | 36197 ft | 411 kts | 325° |
| 2026-04-22 14:48 | 47.73622 | 10.36009 | 36205 ft | 411 kts | 325° |
| 2026-04-22 14:48 | 47.78163 | 10.30825 | 36209 ft | 412 kts | 321° |
| 2026-04-22 14:49 | 47.82578 | 10.25373 | 36229 ft | 413 kts | 321° |
| 2026-04-22 14:49 | 47.86971 | 10.19944 | 36240 ft | 413 kts | 321° |
| 2026-04-22 14:50 | 47.91403 | 10.14501 | 36235 ft | 413 kts | 321° |
| 2026-04-22 14:50 | 47.95843 | 10.09055 | 36237 ft | 413 kts | 321° |
| 2026-04-22 14:51 | 48.00278 | 10.03608 | 36251 ft | 413 kts | 321° |
| 2026-04-22 14:51 | 48.04722 | 9.98136 | 36237 ft | 414 kts | 321° |
| 2026-04-22 14:52 | 48.09173 | 9.92643 | 36237 ft | 415 kts | 321° |
| 2026-04-22 14:52 | 48.13625 | 9.87136 | 36239 ft | 416 kts | 321° |
| 2026-04-22 14:53 | 48.18076 | 9.81617 | 36232 ft | 415 kts | 321° |
| 2026-04-22 14:53 | 48.22523 | 9.76090 | 36233 ft | 415 kts | 321° |
| 2026-04-22 14:54 | 48.26969 | 9.70553 | 36229 ft | 416 kts | 321° |
| 2026-04-22 14:54 | 48.31419 | 9.65000 | 36239 ft | 416 kts | 321° |
| 2026-04-22 14:55 | 48.35859 | 9.59422 | 36235 ft | 416 kts | 321° |
| 2026-04-22 14:55 | 48.40274 | 9.53770 | 36234 ft | 417 kts | 321° |
| 2026-04-22 14:56 | 48.44682 | 9.48101 | 36226 ft | 417 kts | 321° |
| 2026-04-22 14:56 | 48.49093 | 9.42424 | 36234 ft | 417 kts | 321° |
| 2026-04-22 14:57 | 48.53504 | 9.36743 | 36238 ft | 417 kts | 321° |
| 2026-04-22 14:57 | 48.57910 | 9.31056 | 36240 ft | 417 kts | 321° |
| 2026-04-22 14:58 | 48.62319 | 9.25352 | 36236 ft | 417 kts | 321° |
| 2026-04-22 14:58 | 48.66721 | 9.19643 | 36241 ft | 417 kts | 321° |
| 2026-04-22 14:59 | 48.71116 | 9.13930 | 36233 ft | 416 kts | 320° |
| 2026-04-22 14:59 | 48.75503 | 9.08214 | 36240 ft | 415 kts | 321° |
| 2026-04-22 15:00 | 48.79849 | 9.02538 | 36242 ft | 415 kts | 321° |
| 2026-04-22 15:00 | 48.84224 | 8.96809 | 36244 ft | 415 kts | 321° |
| 2026-04-22 15:01 | 48.88598 | 8.91069 | 36246 ft | 416 kts | 321° |
| 2026-04-22 15:01 | 48.92970 | 8.85318 | 36255 ft | 416 kts | 321° |
| 2026-04-22 15:02 | 48.97350 | 8.79542 | 36240 ft | 416 kts | 321° |
| 2026-04-22 15:02 | 49.01725 | 8.73759 | 36256 ft | 417 kts | 321° |
| 2026-04-22 15:03 | 49.06105 | 8.67956 | 36263 ft | 417 kts | 320° |
| 2026-04-22 15:03 | 49.10484 | 8.62138 | 36256 ft | 418 kts | 320° |
| 2026-04-22 15:04 | 49.14131 | 8.57283 | 36268 ft | 418 kts | 320° |
| 2026-04-22 15:04 | 49.18513 | 8.51436 | 36265 ft | 419 kts | 320° |
| 2026-04-22 15:05 | 49.22897 | 8.45572 | 36271 ft | 419 kts | 321° |
| 2026-04-22 15:05 | 49.27290 | 8.39682 | 36281 ft | 419 kts | 321° |
| 2026-04-22 15:06 | 49.31681 | 8.33781 | 36272 ft | 420 kts | 320° |
| 2026-04-22 15:06 | 49.36072 | 8.27863 | 36273 ft | 420 kts | 320° |
| 2026-04-22 15:07 | 49.40464 | 8.21932 | 36271 ft | 421 kts | 320° |
| 2026-04-22 15:07 | 49.44859 | 8.15980 | 36279 ft | 421 kts | 320° |
| 2026-04-22 15:08 | 49.49254 | 8.10013 | 36287 ft | 421 kts | 320° |
| 2026-04-22 15:08 | 49.53645 | 8.04037 | 36282 ft | 422 kts | 320° |
| 2026-04-22 15:09 | 49.58037 | 7.98046 | 36273 ft | 422 kts | 320° |
| 2026-04-22 15:09 | 49.62431 | 7.92037 | 36267 ft | 422 kts | 320° |
| 2026-04-22 15:10 | 49.66818 | 7.86022 | 36291 ft | 422 kts | 320° |
| 2026-04-22 15:10 | 49.71203 | 7.79993 | 36291 ft | 422 kts | 320° |
| 2026-04-22 15:11 | 49.75594 | 7.73943 | 36291 ft | 423 kts | 320° |
| 2026-04-22 15:11 | 49.79978 | 7.67886 | 36282 ft | 422 kts | 320° |
| 2026-04-22 15:12 | 49.84358 | 7.61820 | 36294 ft | 422 kts | 320° |
| 2026-04-22 15:12 | 49.88733 | 7.55746 | 36293 ft | 422 kts | 320° |
| 2026-04-22 15:13 | 49.93079 | 7.49697 | 36294 ft | 422 kts | 320° |
| 2026-04-22 15:13 | 49.97454 | 7.43594 | 36291 ft | 423 kts | 320° |
| 2026-04-22 15:14 | 50.01827 | 7.37479 | 36297 ft | 423 kts | 320° |
| 2026-04-22 15:14 | 50.06028 | 7.31061 | 36259 ft | 428 kts | 306° |
| 2026-04-22 15:15 | 50.07424 | 7.26967 | 36297 ft | 431 kts | 293° |
| 2026-04-22 15:15 | 50.08196 | 7.22443 | 36289 ft | 437 kts | 279° |
| 2026-04-22 15:15 | 50.08575 | 7.12972 | 36301 ft | 439 kts | 275° |
| 2026-04-22 15:16 | 50.08873 | 7.03473 | 36286 ft | 439 kts | 276° |
| 2026-04-22 15:16 | 50.09249 | 6.93988 | 36292 ft | 439 kts | 276° |
| 2026-04-22 15:17 | 50.09553 | 6.84478 | 36248 ft | 441 kts | 272° |
| 2026-04-22 15:17 | 50.09322 | 6.74922 | 36267 ft | 442 kts | 270° |
| 2026-04-22 15:18 | 50.09072 | 6.65374 | 36262 ft | 441 kts | 271° |
| 2026-04-22 15:18 | 50.08855 | 6.55835 | 36279 ft | 441 kts | 271° |
| 2026-04-22 15:19 | 50.08636 | 6.46294 | 36274 ft | 440 kts | 271° |
| 2026-04-22 15:19 | 50.08415 | 6.36907 | 35792 ft | 428 kts | 272° |
| 2026-04-22 15:20 | 50.08324 | 6.32299 | 35443 ft | 424 kts | 272° |
| 2026-04-22 15:20 | 50.08235 | 6.27736 | 35057 ft | 420 kts | 272° |
| 2026-04-22 15:20 | 50.08138 | 6.23205 | 34683 ft | 417 kts | 271° |
| 2026-04-22 15:20 | 50.08013 | 6.18713 | 34361 ft | 413 kts | 271° |
| 2026-04-22 15:21 | 50.07864 | 6.14281 | 34001 ft | 408 kts | 271° |
| 2026-04-22 15:21 | 50.07759 | 6.09890 | 33621 ft | 403 kts | 274° |
| 2026-04-22 15:21 | 50.08173 | 6.05679 | 33223 ft | 387 kts | 295° |
| 2026-04-22 15:21 | 50.09448 | 6.02096 | 32913 ft | 374 kts | 312° |
| 2026-04-22 15:22 | 50.11246 | 5.99234 | 32520 ft | 367 kts | 323° |
| 2026-04-22 15:22 | 50.13402 | 5.97204 | 32129 ft | 360 kts | 338° |
| 2026-04-22 15:22 | 50.15709 | 5.95766 | 31777 ft | 356 kts | 340° |
| 2026-04-22 15:22 | 50.18026 | 5.94445 | 31425 ft | 353 kts | 341° |
| 2026-04-22 15:23 | 50.20332 | 5.93161 | 31084 ft | 350 kts | 341° |
| 2026-04-22 15:23 | 50.22616 | 5.91884 | 30751 ft | 348 kts | 341° |
| 2026-04-22 15:23 | 50.24886 | 5.90601 | 30414 ft | 345 kts | 341° |
| 2026-04-22 15:23 | 50.27137 | 5.89314 | 30024 ft | 344 kts | 340° |
| 2026-04-22 15:24 | 50.29371 | 5.88027 | 29671 ft | 341 kts | 341° |
| 2026-04-22 15:24 | 50.31585 | 5.86748 | 29301 ft | 338 kts | 341° |
| 2026-04-22 15:24 | 50.33783 | 5.85475 | 28948 ft | 336 kts | 341° |
| 2026-04-22 15:24 | 50.35967 | 5.84206 | 28618 ft | 333 kts | 341° |
| 2026-04-22 15:25 | 50.38137 | 5.82944 | 28252 ft | 332 kts | 341° |
| 2026-04-22 15:25 | 50.40293 | 5.81688 | 27904 ft | 330 kts | 341° |
| 2026-04-22 15:25 | 50.42442 | 5.80436 | 27556 ft | 328 kts | 341° |
| 2026-04-22 15:25 | 50.44550 | 5.79207 | 27226 ft | 326 kts | 342° |
| 2026-04-22 15:26 | 50.46672 | 5.77969 | 26883 ft | 325 kts | 342° |
| 2026-04-22 15:26 | 50.48791 | 5.76732 | 26557 ft | 324 kts | 342° |
| 2026-04-22 15:26 | 50.50899 | 5.75501 | 26224 ft | 323 kts | 342° |
| 2026-04-22 15:26 | 50.53003 | 5.74271 | 25889 ft | 322 kts | 342° |
| 2026-04-22 15:27 | 50.55101 | 5.73039 | 25552 ft | 322 kts | 342° |
| 2026-04-22 15:27 | 50.57193 | 5.71801 | 25223 ft | 322 kts | 341° |
| 2026-04-22 15:27 | 50.59118 | 5.69952 | 24805 ft | 332 kts | 320° |
| 2026-04-22 15:27 | 50.60686 | 5.67196 | 24314 ft | 341 kts | 313° |
| 2026-04-22 15:28 | 50.62165 | 5.64259 | 23925 ft | 343 kts | 311° |
| 2026-04-22 15:28 | 50.63629 | 5.61289 | 23556 ft | 343 kts | 312° |
| 2026-04-22 15:28 | 50.65092 | 5.58328 | 23162 ft | 342 kts | 311° |
| 2026-04-22 15:28 | 50.66560 | 5.55381 | 22818 ft | 341 kts | 312° |
| 2026-04-22 15:29 | 50.68027 | 5.52457 | 22483 ft | 339 kts | 312° |
| 2026-04-22 15:29 | 50.69491 | 5.49549 | 22143 ft | 338 kts | 313° |
| 2026-04-22 15:29 | 50.70951 | 5.46654 | 21818 ft | 337 kts | 312° |
| 2026-04-22 15:30 | 50.73861 | 5.40889 | 21158 ft | 335 kts | 313° |
| 2026-04-22 15:30 | 50.75309 | 5.38019 | 20834 ft | 334 kts | 313° |
| 2026-04-22 15:30 | 50.76756 | 5.35154 | 20497 ft | 333 kts | 313° |
| 2026-04-22 15:30 | 50.78196 | 5.32298 | 20176 ft | 332 kts | 313° |
| 2026-04-22 15:31 | 50.79636 | 5.29437 | 19854 ft | 332 kts | 313° |
| 2026-04-22 15:31 | 50.81074 | 5.26582 | 19526 ft | 332 kts | 313° |
| 2026-04-22 15:31 | 50.82516 | 5.23718 | 19197 ft | 332 kts | 313° |
| 2026-04-22 15:31 | 50.83953 | 5.20854 | 18859 ft | 333 kts | 313° |
| 2026-04-22 15:32 | 50.85392 | 5.17978 | 18502 ft | 334 kts | 313° |
| 2026-04-22 15:32 | 50.86817 | 5.15085 | 18118 ft | 335 kts | 308° |
| 2026-04-22 15:32 | 50.87752 | 5.11679 | 17759 ft | 343 kts | 283° |
| 2026-04-22 15:32 | 50.88015 | 5.07926 | 17453 ft | 343 kts | 276° |
| 2026-04-22 15:33 | 50.88169 | 5.04157 | 17101 ft | 343 kts | 275° |
| 2026-04-22 15:33 | 50.88302 | 5.00383 | 16767 ft | 343 kts | 275° |
| 2026-04-22 15:33 | 50.88439 | 4.96617 | 16437 ft | 342 kts | 275° |
| 2026-04-22 15:33 | 50.88584 | 4.92858 | 16121 ft | 341 kts | 275° |
| 2026-04-22 15:34 | 50.88736 | 4.89112 | 15790 ft | 341 kts | 275° |
| 2026-04-22 15:34 | 50.88896 | 4.85367 | 15459 ft | 341 kts | 275° |
| 2026-04-22 15:34 | 50.89058 | 4.81632 | 15130 ft | 340 kts | 275° |
| 2026-04-22 15:34 | 50.89220 | 4.77889 | 14797 ft | 340 kts | 275° |
| 2026-04-22 15:35 | 50.89324 | 4.75413 | 14580 ft | 340 kts | 275° |
| 2026-04-22 15:35 | 50.89535 | 4.70421 | 14148 ft | 339 kts | 275° |
| 2026-04-22 15:35 | 50.89695 | 4.66694 | 13779 ft | 339 kts | 274° |
| 2026-04-22 15:35 | 50.89849 | 4.62966 | 13436 ft | 339 kts | 274° |
| 2026-04-22 15:36 | 50.90001 | 4.59252 | 13098 ft | 337 kts | 274° |
| 2026-04-22 15:36 | 50.89836 | 4.55575 | 12747 ft | 336 kts | 251° |
| 2026-04-22 15:36 | 50.88761 | 4.52370 | 12502 ft | 324 kts | 228° |
| 2026-04-22 15:36 | 50.87151 | 4.49994 | 12194 ft | 311 kts | 214° |
| 2026-04-22 15:37 | 50.85433 | 4.47972 | 11876 ft | 304 kts | 212° |
| 2026-04-22 15:37 | 50.83745 | 4.46027 | 11591 ft | 297 kts | 213° |
| 2026-04-22 15:37 | 50.82126 | 4.44144 | 11305 ft | 291 kts | 213° |
| 2026-04-22 15:37 | 50.80517 | 4.42254 | 11022 ft | 285 kts | 213° |
| 2026-04-22 15:38 | 50.78946 | 4.40404 | 10750 ft | 280 kts | 213° |
| 2026-04-22 15:38 | 50.75852 | 4.36737 | 10377 ft | 278 kts | 213° |
| 2026-04-22 15:38 | 50.74278 | 4.34876 | 10120 ft | 287 kts | 212° |
| 2026-04-22 15:39 | 50.72673 | 4.32989 | 9817 ft | 288 kts | 213° |
| 2026-04-22 15:39 | 50.71066 | 4.31129 | 9516 ft | 284 kts | 208° |
| 2026-04-22 15:39 | 50.69263 | 4.30090 | 9250 ft | 271 kts | 180° |
| 2026-04-22 15:39 | 50.67433 | 4.30332 | 9001 ft | 260 kts | 157° |
| 2026-04-22 15:40 | 50.65783 | 4.31324 | 8843 ft | 251 kts | 153° |
| 2026-04-22 15:40 | 50.64175 | 4.32354 | 8628 ft | 247 kts | 153° |
| 2026-04-22 15:40 | 50.62589 | 4.33367 | 8386 ft | 245 kts | 154° |
| 2026-04-22 15:40 | 50.61011 | 4.34368 | 8131 ft | 244 kts | 154° |
| 2026-04-22 15:41 | 50.59440 | 4.35359 | 7881 ft | 242 kts | 154° |
| 2026-04-22 15:41 | 50.57882 | 4.36336 | 7647 ft | 241 kts | 154° |
| 2026-04-22 15:41 | 50.56345 | 4.37298 | 7419 ft | 232 kts | 154° |
| 2026-04-22 15:41 | 50.54884 | 4.38207 | 7203 ft | 219 kts | 153° |
| 2026-04-22 15:42 | 50.53510 | 4.39057 | 7037 ft | 206 kts | 154° |
| 2026-04-22 15:42 | 50.52210 | 4.39867 | 6892 ft | 199 kts | 153° |
| 2026-04-22 15:42 | 50.50928 | 4.40673 | 6699 ft | 198 kts | 152° |
| 2026-04-22 15:42 | 50.49646 | 4.41484 | 6481 ft | 198 kts | 152° |
| 2026-04-22 15:43 | 50.48292 | 4.41938 | 6223 ft | 208 kts | 181° |
| 2026-04-22 15:43 | 50.46990 | 4.40958 | 6066 ft | 215 kts | 219° |
| 2026-04-22 15:43 | 50.46275 | 4.38891 | 5865 ft | 222 kts | 259° |
| 2026-04-22 15:43 | 50.46410 | 4.36511 | 5697 ft | 218 kts | 282° |
| 2026-04-22 15:44 | 50.46740 | 4.34174 | 5553 ft | 218 kts | 280° |
| 2026-04-22 15:44 | 50.47065 | 4.31872 | 5452 ft | 215 kts | 281° |
| 2026-04-22 15:44 | 50.47392 | 4.29557 | 5364 ft | 220 kts | 281° |
| 2026-04-22 15:44 | 50.47630 | 4.27186 | 5254 ft | 219 kts | 262° |
| 2026-04-22 15:45 | 50.47137 | 4.25062 | 5164 ft | 202 kts | 235° |
| 2026-04-22 15:45 | 50.46505 | 4.23077 | 4868 ft | 199 kts | 238° |
| 2026-04-22 15:45 | 50.45913 | 4.21122 | 4712 ft | 200 kts | 239° |
| 2026-04-22 15:45 | 50.45194 | 4.19284 | 4524 ft | 194 kts | 214° |
| 2026-04-22 15:46 | 50.44032 | 4.18447 | 4325 ft | 181 kts | 179° |
| 2026-04-22 15:46 | 50.42848 | 4.18742 | 4109 ft | 169 kts | 147° |
| 2026-04-22 15:46 | 50.41801 | 4.19478 | 3931 ft | 163 kts | 148° |
| 2026-04-22 15:46 | 50.40775 | 4.20205 | 3784 ft | 162 kts | 147° |
| 2026-04-22 15:47 | 50.39807 | 4.21032 | 3609 ft | 157 kts | 126° |
| 2026-04-22 15:47 | 50.39511 | 4.22529 | 3422 ft | 144 kts | 75° |
| 2026-04-22 15:47 | 50.39869 | 4.24018 | 3308 ft | 149 kts | 68° |
| 2026-04-22 15:47 | 50.40268 | 4.25518 | 3181 ft | 148 kts | 66° |
| 2026-04-22 15:48 | 50.40677 | 4.26954 | 2983 ft | 142 kts | 66° |
| 2026-04-22 15:48 | 50.41077 | 4.28331 | 2811 ft | 137 kts | 67° |
| 2026-04-22 15:48 | 50.41467 | 4.29678 | 2649 ft | 136 kts | 65° |
| 2026-04-22 15:48 | 50.41854 | 4.31013 | 2455 ft | 131 kts | 65° |
| 2026-04-22 15:49 | 50.42228 | 4.32310 | 2294 ft | 130 kts | 67° |
| 2026-04-22 15:49 | 50.42584 | 4.33547 | 2145 ft | 124 kts | 66° |
| 2026-04-22 15:49 | 50.42947 | 4.34799 | 1929 ft | 126 kts | 65° |
| 2026-04-22 15:49 | 50.43312 | 4.36066 | 1794 ft | 133 kts | 64° |
| 2026-04-22 15:50 | 50.43691 | 4.37373 | 1589 ft | 128 kts | 64° |
| 2026-04-22 15:50 | 50.44046 | 4.38593 | 1422 ft | 118 kts | 63° |
| 2026-04-22 15:50 | 50.44375 | 4.39771 | 1297 ft | 120 kts | 65° |
| 2026-04-22 15:50 | 50.44597 | 4.40583 | 1117 ft | 127 kts | 68° |
| 2026-04-22 15:51 | 50.44971 | 4.41826 | 1048 ft | 129 kts | 64° |
| 2026-04-22 15:51 | 50.45357 | 4.43149 | 844 ft | 133 kts | 65° |
| 2026-04-22 15:51 | 50.45741 | 4.44443 | 662 ft | 127 kts | 63° |
| 2026-04-22 15:51 | 50.46065 | 4.45655 | 815 ft | 126 kts | 68° |
| 2026-04-22 15:52 | 50.46398 | 4.47047 | 1501 ft | 151 kts | 66° |
| 2026-04-22 15:52 | 50.46902 | 4.48713 | 1971 ft | 186 kts | 65° |
| 2026-04-22 15:52 | 50.47503 | 4.50672 | 2343 ft | 207 kts | 65° |
| 2026-04-22 15:52 | 50.48122 | 4.52733 | 2876 ft | 210 kts | 66° |
| 2026-04-22 15:53 | 50.49028 | 4.54540 | 2936 ft | 216 kts | 34° |
| 2026-04-22 15:53 | 50.50473 | 4.55322 | 2988 ft | 228 kts | 13° |
| 2026-04-22 15:53 | 50.52125 | 4.55141 | 2995 ft | 255 kts | 346° |
| 2026-04-22 15:53 | 50.53658 | 4.53648 | 3003 ft | 268 kts | 317° |
| 2026-04-22 15:54 | 50.54606 | 4.51003 | 3006 ft | 279 kts | 286° |
| 2026-04-22 15:54 | 50.54628 | 4.48030 | 2994 ft | 282 kts | 256° |
| 2026-04-22 15:54 | 50.53902 | 4.45192 | 2999 ft | 279 kts | 242° |
| 2026-04-22 15:54 | 50.52976 | 4.42547 | 3012 ft | 271 kts | 239° |
| 2026-04-22 15:55 | 50.52065 | 4.40019 | 2997 ft | 263 kts | 239° |
| 2026-04-22 15:55 | 50.51181 | 4.37524 | 2996 ft | 259 kts | 240° |
| 2026-04-22 15:55 | 50.50321 | 4.35047 | 3012 ft | 259 kts | 240° |
| 2026-04-22 15:55 | 50.49460 | 4.32521 | 2999 ft | 263 kts | 241° |
| 2026-04-22 15:56 | 50.48604 | 4.29978 | 2996 ft | 263 kts | 241° |
| 2026-04-22 15:56 | 50.47761 | 4.27481 | 3003 ft | 252 kts | 241° |
| 2026-04-22 15:56 | 50.47033 | 4.25105 | 2984 ft | 231 kts | 244° |
| 2026-04-22 15:56 | 50.46398 | 4.22906 | 2975 ft | 214 kts | 244° |
| 2026-04-22 15:57 | 50.45803 | 4.20855 | 2977 ft | 200 kts | 244° |
| 2026-04-22 15:57 | 50.45083 | 4.19022 | 2983 ft | 197 kts | 215° |
| 2026-04-22 15:57 | 50.43875 | 4.18323 | 3009 ft | 181 kts | 170° |
| 2026-04-22 15:57 | 50.42714 | 4.18742 | 3012 ft | 165 kts | 150° |
| 2026-04-22 15:58 | 50.41676 | 4.19458 | 3012 ft | 162 kts | 148° |
| 2026-04-22 15:58 | 50.40648 | 4.20195 | 3039 ft | 164 kts | 147° |
| 2026-04-22 15:58 | 50.39787 | 4.21237 | 2997 ft | 151 kts | 110° |
| 2026-04-22 15:58 | 50.39786 | 4.22758 | 3001 ft | 142 kts | 69° |
| 2026-04-22 15:59 | 50.40106 | 4.24244 | 3024 ft | 145 kts | 71° |
| 2026-04-22 15:59 | 50.40421 | 4.25784 | 2895 ft | 152 kts | 72° |
| 2026-04-22 15:59 | 50.40776 | 4.27278 | 2866 ft | 141 kts | 68° |
| 2026-04-22 15:59 | 50.41175 | 4.28683 | 2742 ft | 143 kts | 66° |
| 2026-04-22 16:00 | 50.41597 | 4.30143 | 2552 ft | 151 kts | 66° |
| 2026-04-22 16:00 | 50.42018 | 4.31596 | 2373 ft | 143 kts | 66° |
| 2026-04-22 16:00 | 50.42409 | 4.32951 | 2151 ft | 130 kts | 67° |
| 2026-04-22 16:00 | 50.42771 | 4.34205 | 2049 ft | 125 kts | 66° |
| 2026-04-22 16:01 | 50.43128 | 4.35439 | 1887 ft | 125 kts | 66° |
| 2026-04-22 16:01 | 50.43496 | 4.36709 | 1699 ft | 128 kts | 66° |
| 2026-04-22 16:01 | 50.43857 | 4.37955 | 1537 ft | 125 kts | 65° |
| 2026-04-22 16:01 | 50.44219 | 4.39208 | 1373 ft | 125 kts | 65° |
| 2026-04-22 16:02 | 50.44578 | 4.40443 | 1160 ft | 125 kts | 65° |
| 2026-04-22 16:02 | 50.44934 | 4.41644 | 1045 ft | 123 kts | 65° |
| 2026-04-22 16:02 | 50.45290 | 4.42894 | 868 ft | 130 kts | 64° |
| 2026-04-22 16:02 | 50.45671 | 4.44207 | 686 ft | 132 kts | 61° |
| 2026-04-22 16:03 | 50.46021 | 4.45410 | 629 ft | 100 kts | 65° |
| 2026-04-22 16:03 | 50.46249 | 4.46180 | 617 ft | 56 kts | 65° |
| 2026-04-22 16:03 | 50.46352 | 4.46532 | 613 ft | 25 kts | 65° |
| 2026-04-22 16:03 | 50.46415 | 4.46755 | 617 ft | 19 kts | 66° |
| 2026-04-22 16:04 | 50.46499 | 4.46897 | 612 ft | 15 kts | 356° |
| 2026-04-22 16:04 | 50.46523 | 4.46869 | 617 ft | 0 kts | 313° |
| 2026-04-22 16:04 | 50.46536 | 4.46835 | 616 ft | 8 kts | 291° |
| 2026-04-22 16:04 | 50.46584 | 4.46815 | 612 ft | 8 kts | 13° |
| 2026-04-22 16:05 | 50.46594 | 4.46818 | 612 ft | 0 kts | 11° |
| 2026-04-22 16:05 | 50.46603 | 4.46819 | 621 ft | 3 kts | 6° |
| 2026-04-22 16:06 | 50.46639 | 4.46801 | 617 ft | 8 kts | 331° |
| 2026-04-22 16:06 | 50.46653 | 4.46718 | 624 ft | 9 kts | 250° |
| 2026-04-22 16:06 | 50.46648 | 4.46640 | 617 ft | 5 kts | 308° |
| 2026-04-22 16:06 | 50.46676 | 4.46611 | 618 ft | 5 kts | 334° |
| 2026-04-22 16:07 | 50.46707 | 4.46591 | 615 ft | 4 kts | 339° |
| 2026-04-22 16:07 | 50.46715 | 4.46586 | 623 ft | 1 kts | 338° |
| 2026-04-22 16:07 | 50.46719 | 4.46583 | 621 ft | 1 kts | 338° |
| 2026-04-22 16:07 | 50.46720 | 4.46583 | 620 ft | 0 kts | 338° |